Atlantic - Newfoundland: Past 24 Hour Conditions

 

Grates Cove

03:30 PM NDT 23 September 2014
This table is a summary of hourly weather conditions for the past 24 hours.
Date / Time
(NDT)
Wind(knots) Conditions Visibility(km) Pressure(kPa) Air tempC) Relative humidity(%) Dew pointC) Humidex
23 September 2014
15:30 WSW 25 gust 36 N/A N/A 100.7 15 66 9 *
14:30 WSW 27 gust 38 N/A N/A 100.5 16 67 10 *
13:30 WSW 26 gust 33 N/A N/A 100.5 16 67 10 *
12:30 WSW 29 gust 38 N/A N/A 100.5 17 70 11 *
11:30 WSW 26 gust 34 N/A N/A 100.4 17 74 12 *
10:30 WSW 22 gust 29 N/A N/A 100.4 17 81 14 *
9:30 WSW 28 gust 33 N/A N/A 100.4 17 85 14 *
8:30 WSW 25 gust 35 N/A N/A 100.3 17 85 15 *
7:30 WSW 19 gust 27 N/A N/A 100.3 18 88 16 *
6:30 WSW 23 gust 32 N/A N/A 100.3 18 92 17 *
5:30 SW 19 gust 24 N/A N/A 100.3 20 88 18 *
4:30 SW 22 gust 27 N/A N/A 100.3 19 90 17 *
3:30 WSW 23 gust 31 N/A N/A 100.4 18 90 16 *
2:30 SW 19 gust 34 N/A N/A 100.3 18 89 16 *
1:30 SW 24 gust 34 N/A N/A 100.3 18 90 16 *
0:30 WSW 25 gust 34 N/A N/A 100.3 17 94 16 *
22 September 2014
23:30 WSW 29 gust 40 N/A N/A 100.3 17 93 16 *
22:30 WSW 24 gust 38 N/A N/A 100.2 18 92 17 *
21:30 WSW 26 gust 34 N/A N/A 100.2 20 91 18 *
20:30 SW 29 gust 40 N/A N/A 100.1 21 90 19 28
19:30 SSW 27 gust 36 N/A N/A 100.1 19 94 18 *
18:30 SSW 33 gust 38 N/A N/A 100.1 19 93 18 *
17:30 SSW 27 gust 40 N/A N/A 100.2 19 93 18 *
16:30 SSW 32 gust 46 N/A N/A 100.3 19 92 18 *
15:30 SSW 28 gust 41 N/A N/A 100.5 19 91 17 *
 
Map of Atlantic - Newfoundland marine weather areas Southwestern Grand Banks - 44138 Banquereau - 44139 Tail of the Bank - 44140 Nickerson Bank - 44251 Northeast Burgeo Bank - 44255 Blanc-Sablon Airport Cap Whittle Chevery Natashquan Airport Heath Point Miscou Island Grand Étang Ingonish Beach North Mountain St.Paul Island J.A. Douglas McCurdy Sydney Airport Charlottetown Airport East Point North Cape Argentia Bonavista Burgeo Cape Race Corner Brook Daniel's Harbour Englee Ferolle Point La Scie Port aux Basques Rocky Harbour Sagona Island St. Anthony Airport St. John's Int'l Airport St. Lawrence Stephenville Airport Twillingate Winterland Wreckhouse Cartwright Airport Mary's Harbour Grates Cove Pool's Island Marticot Island Long Pond Îles de la Madeleine Airport
Legend: buoyBuoy land stationLand Station